createdAt,value
2023-04-26T00:02:18.318Z,9.60
2023-04-26T00:04:47.302Z,9.50
2023-04-26T00:07:16.561Z,9.40
2023-04-26T00:09:44.824Z,9.40
2023-04-26T00:12:12.863Z,9.30
2023-04-26T00:14:40.673Z,9.40
2023-04-26T00:17:08.412Z,9.30
2023-04-26T00:19:38.565Z,9.50
2023-04-26T00:22:06.616Z,9.20
2023-04-26T00:24:34.535Z,9.20
2023-04-26T00:27:05.307Z,9.40
2023-04-26T00:29:33.024Z,9.20
2023-04-26T00:32:00.954Z,9.30
2023-04-26T00:34:33.526Z,9.40
2023-04-26T00:37:03.397Z,9.50
2023-04-26T00:39:31.443Z,9.60
2023-04-26T00:41:59.319Z,9.40
2023-04-26T00:44:27.055Z,9.40
2023-04-26T00:46:55.821Z,9.30
2023-04-26T00:49:25.930Z,9.30
2023-04-26T00:51:54.072Z,9.30
2023-04-26T00:54:23.469Z,9.20
2023-04-26T00:56:53.220Z,9.10
2023-04-26T00:59:21.572Z,9.10
2023-04-26T01:01:49.564Z,9.00
2023-04-26T01:04:18.236Z,9.10
2023-04-26T01:06:46.959Z,8.90
2023-04-26T01:09:15.526Z,8.80
2023-04-26T01:11:45.636Z,8.80
2023-04-26T01:14:14.106Z,8.80
2023-04-26T01:16:41.937Z,8.70
2023-04-26T01:19:12.547Z,8.70
2023-04-26T01:21:41.075Z,8.70
2023-04-26T01:24:10.665Z,8.70
2023-04-26T01:26:43.972Z,8.50
2023-04-26T01:29:16.189Z,8.60
2023-04-26T01:31:44.138Z,8.60
2023-04-26T01:34:11.929Z,8.60
2023-04-26T01:36:39.791Z,8.50
2023-04-26T01:39:09.209Z,8.60
2023-04-26T01:41:38.611Z,8.60
2023-04-26T01:44:06.618Z,8.60
2023-04-26T01:46:34.522Z,8.70
2023-04-26T01:49:02.304Z,8.70
2023-04-26T01:51:29.973Z,8.60
2023-04-26T01:53:57.662Z,8.50
2023-04-26T01:56:25.662Z,8.60
2023-04-26T01:58:56.265Z,8.60
2023-04-26T02:01:24.262Z,8.60
2023-04-26T02:03:52.150Z,8.60
2023-04-26T02:06:19.856Z,8.50
2023-04-26T02:08:47.661Z,8.50
2023-04-26T02:11:15.338Z,8.60
2023-04-26T02:13:43.272Z,8.50
2023-04-26T02:16:12.416Z,8.50
2023-04-26T02:18:41.675Z,8.50
2023-04-26T02:21:10.095Z,8.40
2023-04-26T02:23:37.805Z,8.40
2023-04-26T02:26:05.985Z,8.30
2023-04-26T02:28:33.689Z,8.60
2023-04-26T02:31:03.155Z,8.50
2023-04-26T02:33:32.306Z,8.50
2023-04-26T02:36:00.126Z,8.50
2023-04-26T02:38:28.012Z,8.60
2023-04-26T02:40:59.771Z,8.40
2023-04-26T02:43:27.718Z,8.30
2023-04-26T02:45:55.577Z,8.30
2023-04-26T02:48:23.296Z,8.30
2023-04-26T02:50:52.567Z,8.20
2023-04-26T02:53:20.836Z,8.20
2023-04-26T02:55:48.599Z,8.30
2023-04-26T02:58:17.394Z,8.20
2023-04-26T03:00:48.316Z,8.30
2023-04-26T03:03:16.765Z,8.30
2023-04-26T03:05:44.732Z,8.20
2023-04-26T03:08:13.732Z,8.20
2023-04-26T03:10:41.429Z,8.10
2023-04-26T03:13:09.280Z,8.10
2023-04-26T03:15:36.999Z,8.10
2023-04-26T03:18:04.917Z,8.00
2023-04-26T03:20:32.738Z,8.00
2023-04-26T03:23:00.437Z,7.90
2023-04-26T03:25:29.589Z,8.00
2023-04-26T03:27:57.395Z,7.80
2023-04-26T03:30:25.078Z,7.90
2023-04-26T03:32:53.808Z,7.80
2023-04-26T03:35:21.822Z,7.90
2023-04-26T03:37:51.166Z,7.90
2023-04-26T03:40:20.385Z,7.90
2023-04-26T03:42:49.478Z,7.90
2023-04-26T03:45:17.246Z,8.00
2023-04-26T03:47:44.974Z,7.80
2023-04-26T03:50:13.118Z,7.90
2023-04-26T03:52:40.926Z,7.90
2023-04-26T03:55:11.820Z,7.80
2023-04-26T03:57:39.622Z,7.90
2023-04-26T04:00:12.497Z,7.80
2023-04-26T04:02:40.498Z,7.90
2023-04-26T04:05:09.239Z,7.80
2023-04-26T04:07:37.449Z,7.90
2023-04-26T04:10:05.638Z,7.80
2023-04-26T04:12:33.329Z,7.60
2023-04-26T04:15:01.321Z,7.70
2023-04-26T04:17:30.475Z,7.50
2023-04-26T04:19:58.297Z,7.60
2023-04-26T04:22:26.138Z,7.60
2023-04-26T04:24:54.380Z,7.80
2023-04-26T04:27:22.735Z,7.90
2023-04-26T04:29:50.430Z,7.80
2023-04-26T04:32:18.713Z,7.70
2023-04-26T04:34:49.484Z,7.60
2023-04-26T04:37:18.164Z,7.70
2023-04-26T04:39:46.195Z,7.80
2023-04-26T04:42:14.041Z,7.70
2023-04-26T04:44:43.051Z,7.70
2023-04-26T04:47:10.840Z,7.80
2023-04-26T04:49:38.707Z,7.90
2023-04-26T04:52:07.978Z,7.80
2023-04-26T04:54:35.789Z,7.90
2023-04-26T04:57:04.040Z,7.90
2023-04-26T04:59:33.254Z,7.90
2023-04-26T05:02:01.637Z,7.90
2023-04-26T05:04:29.560Z,7.70
2023-04-26T05:06:57.586Z,7.90
2023-04-26T05:09:27.585Z,7.90
2023-04-26T05:11:55.305Z,8.20
2023-04-26T05:14:23.108Z,8.20
2023-04-26T05:16:51.051Z,8.10
2023-04-26T05:19:18.841Z,8.20
2023-04-26T05:21:46.650Z,8.40
2023-04-26T05:24:14.349Z,8.30
2023-04-26T05:26:43.593Z,8.30
2023-04-26T05:29:11.408Z,8.50
2023-04-26T05:31:39.267Z,8.50
2023-04-26T05:34:07.145Z,8.50
2023-04-26T05:36:35.568Z,8.60
2023-04-26T05:39:05.690Z,8.50
2023-04-26T05:41:33.489Z,8.60
2023-04-26T05:44:02.578Z,8.70
2023-04-26T05:46:30.556Z,8.70
2023-04-26T05:48:58.274Z,8.80
2023-04-26T05:51:26.290Z,8.80
2023-04-26T05:53:54.886Z,9.00
2023-04-26T05:56:24.059Z,9.10
2023-04-26T05:58:51.838Z,9.10
2023-04-26T06:01:21.131Z,9.30
2023-04-26T06:03:49.413Z,9.40
2023-04-26T06:06:18.492Z,9.50
2023-04-26T06:08:46.555Z,9.60
2023-04-26T06:11:14.386Z,9.80
2023-04-26T06:13:42.594Z,9.80
2023-04-26T06:16:10.452Z,10.00
2023-04-26T06:18:39.587Z,10.20
2023-04-26T06:21:08.010Z,10.30
2023-04-26T06:23:35.743Z,10.00
2023-04-26T06:26:03.466Z,10.40
2023-04-26T06:28:31.555Z,10.60
2023-04-26T06:30:59.572Z,10.50
2023-04-26T06:33:27.579Z,10.90
2023-04-26T06:35:56.642Z,10.90
2023-04-26T06:38:24.441Z,11.00
2023-04-26T06:40:52.225Z,11.40
2023-04-26T06:43:19.926Z,11.50
2023-04-26T06:45:48.635Z,11.70
2023-04-26T06:48:16.379Z,11.90
2023-04-26T06:50:44.176Z,12.00
2023-04-26T06:53:13.266Z,12.20
2023-04-26T06:55:40.969Z,12.30
2023-04-26T06:58:08.865Z,12.20
2023-04-26T07:00:36.725Z,12.30
2023-04-26T07:03:04.649Z,12.20
2023-04-26T07:05:32.605Z,12.30
2023-04-26T07:08:00.366Z,12.30
2023-04-26T07:10:29.711Z,12.50
2023-04-26T07:12:57.722Z,12.40
2023-04-26T07:15:25.649Z,11.90
2023-04-26T07:17:53.495Z,11.70
2023-04-26T07:20:23.574Z,11.50
2023-04-26T07:22:51.732Z,11.70
2023-04-26T07:25:19.591Z,11.50
2023-04-26T07:27:51.593Z,11.90
2023-04-26T07:30:19.318Z,11.80
2023-04-26T07:32:47.175Z,11.60
2023-04-26T07:35:16.333Z,11.90
2023-04-26T07:37:45.031Z,11.80
2023-04-26T07:40:13.997Z,11.80
2023-04-26T07:42:41.827Z,11.70
2023-04-26T07:45:12.445Z,12.20
2023-04-26T07:47:40.197Z,12.30
2023-04-26T07:50:09.556Z,12.30
2023-04-26T07:52:37.291Z,12.20
2023-04-26T07:55:05.482Z,12.30
2023-04-26T07:57:33.242Z,12.30
2023-04-26T08:00:01.694Z,12.00
2023-04-26T08:02:43.596Z,11.90
2023-04-26T08:05:12.322Z,12.10
2023-04-26T08:07:40.362Z,12.10
2023-04-26T08:10:09.047Z,12.50
2023-04-26T08:12:38.182Z,12.20
2023-04-26T08:15:07.399Z,12.50
2023-04-26T08:17:36.876Z,11.80
2023-04-26T08:20:06.490Z,12.10
2023-04-26T08:22:34.228Z,12.10
2023-04-26T08:25:02.083Z,12.70
2023-04-26T08:27:29.926Z,13.00
2023-04-26T08:29:57.785Z,13.00
2023-04-26T08:32:25.841Z,12.90
2023-04-26T08:34:55.367Z,13.20
2023-04-26T08:37:23.635Z,13.50
2023-04-26T08:39:51.609Z,13.50
2023-04-26T08:42:19.361Z,13.20
2023-04-26T08:44:47.250Z,13.50
2023-04-26T08:47:18.196Z,13.20
2023-04-26T08:49:47.758Z,13.40
2023-04-26T08:52:22.735Z,13.70
2023-04-26T08:54:54.955Z,14.00
2023-04-26T08:57:23.599Z,14.20
2023-04-26T08:59:52.744Z,14.20
2023-04-26T09:02:22.337Z,14.10
2023-04-26T09:04:51.327Z,13.60
2023-04-26T09:07:23.354Z,13.70
2023-04-26T09:09:52.104Z,13.80
2023-04-26T09:12:21.614Z,13.40
2023-04-26T09:14:49.524Z,14.10
2023-04-26T09:17:27.744Z,14.40
2023-04-26T09:19:55.906Z,13.80
2023-04-26T09:22:33.639Z,13.90
2023-04-26T09:25:03.828Z,14.20
2023-04-26T09:27:36.356Z,14.70
2023-04-26T09:30:10.494Z,14.40
2023-04-26T09:32:47.871Z,14.20
2023-04-26T09:35:28.860Z,14.30
2023-04-26T09:38:04.725Z,14.30
2023-04-26T09:40:38.313Z,14.30
2023-04-26T09:43:08.226Z,14.50
2023-04-26T09:45:45.901Z,14.50
2023-04-26T09:48:16.610Z,14.70
2023-04-26T09:50:46.660Z,14.20
2023-04-26T09:53:34.347Z,13.70
2023-04-26T09:56:10.013Z,14.10
2023-04-26T09:58:38.718Z,14.30
2023-04-26T10:01:08.802Z,14.30
2023-04-26T10:03:37.748Z,14.10
2023-04-26T10:06:06.621Z,14.40
2023-04-26T10:08:36.545Z,14.50
2023-04-26T10:11:07.422Z,14.50
2023-04-26T10:13:36.669Z,14.20
2023-04-26T10:16:05.114Z,14.00
2023-04-26T10:18:33.664Z,13.80
2023-04-26T10:21:06.611Z,13.90
2023-04-26T10:23:36.245Z,14.00
2023-04-26T10:26:04.133Z,14.00
2023-04-26T10:29:05.295Z,13.90
2023-04-26T10:32:06.644Z,14.10
2023-04-26T10:34:36.462Z,14.40
2023-04-26T10:37:14.782Z,13.80
2023-04-26T10:39:45.047Z,14.20
2023-04-26T10:42:24.018Z,14.20
2023-04-26T10:44:52.896Z,14.10
2023-04-26T10:47:38.883Z,14.00
2023-04-26T10:50:09.248Z,14.10
2023-04-26T10:52:57.997Z,14.40
2023-04-26T10:55:39.816Z,14.10
2023-04-26T10:58:28.644Z,14.40
2023-04-26T11:01:17.765Z,14.40
2023-04-26T11:04:06.719Z,14.10
2023-04-26T11:06:49.498Z,13.90
2023-04-26T11:09:37.552Z,14.20
2023-04-26T11:12:08.223Z,14.00
2023-04-26T11:14:35.958Z,13.60
2023-04-26T11:17:08.665Z,13.80
2023-04-26T11:19:36.890Z,13.80
2023-04-26T11:22:07.682Z,14.10
2023-04-26T11:24:36.916Z,14.20
2023-04-26T11:27:11.608Z,14.60
2023-04-26T11:29:40.641Z,14.50
2023-04-26T11:32:10.879Z,14.30
2023-04-26T11:34:40.606Z,14.20
2023-04-26T11:37:09.004Z,14.50
2023-04-26T11:39:38.215Z,14.20
2023-04-26T11:42:07.124Z,14.40
2023-04-26T11:44:37.325Z,14.60
2023-04-26T11:47:06.510Z,14.60
2023-04-26T11:49:36.621Z,14.30
2023-04-26T11:52:05.246Z,14.70
2023-04-26T11:54:34.699Z,14.90
2023-04-26T11:57:16.731Z,15.20
2023-04-26T11:59:46.853Z,14.70
2023-04-26T12:02:14.834Z,14.90
2023-04-26T12:04:44.331Z,15.00
2023-04-26T12:07:12.299Z,15.10
2023-04-26T12:09:42.601Z,15.10
2023-04-26T12:12:12.174Z,15.10
2023-04-26T12:14:42.377Z,15.00
2023-04-26T12:17:11.543Z,14.90
2023-04-26T12:19:41.690Z,15.40
2023-04-26T12:22:10.145Z,15.10
2023-04-26T12:24:38.149Z,15.20
2023-04-26T12:27:07.620Z,15.00
2023-04-26T12:29:36.399Z,15.30
2023-04-26T12:32:04.755Z,15.50
2023-04-26T12:34:36.780Z,15.30
2023-04-26T12:37:05.375Z,14.90
2023-04-26T12:39:33.184Z,15.10
2023-04-26T12:42:01.712Z,15.00
2023-04-26T12:44:29.656Z,15.30
2023-04-26T12:46:57.452Z,15.10
2023-04-26T12:49:25.292Z,14.90
2023-04-26T12:51:54.582Z,15.10
2023-04-26T12:54:22.286Z,15.30
2023-04-26T12:56:50.202Z,14.80
2023-04-26T12:59:18.086Z,15.00
2023-04-26T13:01:45.835Z,14.90
2023-04-26T13:04:13.786Z,15.00
2023-04-26T13:06:41.837Z,15.00
2023-04-26T13:09:13.178Z,15.00
2023-04-26T13:11:41.224Z,15.20
2023-04-26T13:14:09.149Z,15.00
2023-04-26T13:16:39.702Z,15.00
2023-04-26T13:19:07.700Z,15.00
2023-04-26T13:21:35.562Z,14.90
2023-04-26T13:24:03.360Z,14.90
2023-04-26T13:26:32.482Z,14.90
2023-04-26T13:29:00.371Z,14.90
2023-04-26T13:31:28.443Z,15.20
2023-04-26T13:33:56.363Z,15.00
2023-04-26T13:36:24.429Z,15.20
2023-04-26T13:38:52.617Z,14.90
2023-04-26T13:41:20.517Z,15.20
2023-04-26T13:43:50.145Z,15.00
2023-04-26T13:46:17.895Z,14.80
2023-04-26T13:48:46.688Z,14.70
2023-04-26T13:51:15.364Z,15.00
2023-04-26T13:53:43.146Z,15.00
2023-04-26T13:56:11.227Z,14.80
2023-04-26T13:58:39.123Z,14.90
2023-04-26T14:01:08.330Z,14.70
2023-04-26T14:03:36.759Z,14.70
2023-04-26T14:06:05.757Z,14.80
2023-04-26T14:08:33.593Z,14.80
2023-04-26T14:11:01.678Z,14.80
2023-04-26T14:13:29.525Z,14.60
2023-04-26T14:15:57.602Z,14.80
2023-04-26T14:18:26.863Z,14.90
2023-04-26T14:20:54.654Z,15.10
2023-04-26T14:23:22.567Z,15.20
2023-04-26T14:25:52.743Z,15.10
2023-04-26T14:28:20.827Z,15.30
2023-04-26T14:30:48.630Z,15.40
2023-04-26T14:33:16.728Z,15.00
2023-04-26T14:35:46.284Z,15.10
2023-04-26T14:38:14.324Z,15.10
2023-04-26T14:40:42.268Z,15.40
2023-04-26T14:43:10.124Z,15.30
2023-04-26T14:48:12.684Z,15.30
2023-04-26T14:50:40.614Z,15.00
2023-04-26T14:53:10.370Z,15.00
2023-04-26T14:55:39.273Z,15.20
2023-04-26T14:58:07.049Z,15.00
2023-04-26T15:00:34.774Z,15.00
2023-04-26T15:03:02.771Z,14.90
2023-04-26T15:05:30.821Z,15.10
2023-04-26T15:07:58.548Z,15.30
2023-04-26T15:10:28.004Z,15.00
2023-04-26T15:12:56.398Z,15.10
2023-04-26T15:15:24.217Z,15.20
2023-04-26T15:17:52.755Z,15.20
2023-04-26T15:20:20.908Z,15.30
2023-04-26T15:22:48.924Z,15.40
2023-04-26T15:25:16.644Z,15.20
2023-04-26T15:27:47.078Z,15.20
2023-04-26T15:30:15.092Z,15.20
2023-04-26T15:32:43.127Z,15.20
2023-04-26T15:35:13.698Z,15.20
2023-04-26T15:37:41.492Z,15.10
2023-04-26T15:40:10.672Z,15.20
2023-04-26T15:42:39.014Z,15.00
2023-04-26T15:45:09.533Z,15.10
2023-04-26T15:47:37.983Z,15.20
2023-04-26T15:50:07.779Z,15.00
2023-04-26T15:52:38.610Z,15.10
2023-04-26T15:55:08.648Z,15.00
2023-04-26T15:57:36.842Z,15.00
2023-04-26T16:00:06.035Z,14.90
2023-04-26T16:02:35.301Z,14.70
2023-04-26T16:05:04.278Z,14.70
2023-04-26T16:07:32.598Z,14.70
2023-04-26T16:10:00.684Z,14.80
2023-04-26T16:12:28.543Z,14.70
2023-04-26T16:14:56.334Z,14.00
2023-04-26T16:17:24.665Z,14.60
2023-04-26T16:19:53.707Z,14.70
2023-04-26T16:22:21.564Z,14.70
2023-04-26T16:24:49.303Z,14.90
2023-04-26T16:27:17.093Z,14.70
2023-04-26T16:29:45.687Z,14.90
2023-04-26T16:32:13.364Z,14.70
2023-04-26T16:34:41.133Z,14.80
2023-04-26T16:37:10.215Z,14.80
2023-04-26T16:39:38.488Z,14.90
2023-04-26T16:42:06.440Z,14.70
2023-04-26T16:44:34.276Z,14.80
2023-04-26T16:47:02.228Z,14.60
2023-04-26T16:49:30.041Z,14.30
2023-04-26T16:51:58.920Z,14.50
2023-04-26T16:54:28.531Z,14.50
2023-04-26T16:56:56.243Z,14.50
2023-04-26T16:59:23.952Z,14.40
2023-04-26T17:01:52.136Z,14.50
2023-04-26T17:04:20.104Z,14.30
2023-04-26T17:06:47.997Z,14.30
2023-04-26T17:09:15.911Z,14.40
2023-04-26T17:11:45.050Z,14.20
2023-04-26T17:14:12.874Z,14.20
2023-04-26T17:16:40.699Z,14.00
2023-04-26T17:19:08.478Z,14.10
2023-04-26T17:21:36.681Z,14.10
2023-04-26T17:24:05.587Z,13.90
2023-04-26T17:26:33.314Z,14.20
2023-04-26T17:29:02.581Z,14.40
2023-04-26T17:31:30.460Z,14.50
2023-04-26T17:33:58.188Z,14.50
2023-04-26T17:36:26.688Z,14.40
2023-04-26T17:38:54.685Z,14.50
2023-04-26T17:41:23.739Z,14.50
2023-04-26T17:43:51.790Z,14.40
2023-04-26T17:46:20.945Z,14.50
2023-04-26T17:48:48.810Z,14.70
2023-04-26T17:51:16.577Z,14.70
2023-04-26T17:53:44.284Z,14.30
2023-04-26T17:56:12.221Z,14.60
2023-04-26T17:58:40.179Z,14.70
2023-04-26T18:01:08.065Z,14.50
2023-04-26T18:03:37.329Z,14.50
2023-04-26T18:06:05.737Z,14.30
2023-04-26T18:08:33.536Z,14.60
2023-04-26T18:11:01.199Z,14.60
2023-04-26T18:13:29.105Z,14.60
2023-04-26T18:15:57.172Z,14.40
2023-04-26T18:18:27.795Z,14.50
2023-04-26T18:20:57.269Z,14.60
2023-04-26T18:23:25.282Z,14.60
2023-04-26T18:25:56.201Z,14.60
2023-04-26T18:28:23.877Z,14.60
2023-04-26T18:30:56.837Z,14.50
2023-04-26T18:33:25.701Z,14.40
2023-04-26T18:35:53.682Z,14.60
2023-04-26T18:38:23.134Z,14.60
2023-04-26T18:40:51.412Z,14.60
2023-04-26T18:43:19.907Z,14.60
2023-04-26T18:45:48.058Z,14.50
2023-04-26T18:48:15.824Z,14.60
2023-04-26T18:50:51.152Z,14.60
2023-04-26T18:53:19.385Z,14.60
2023-04-26T18:55:49.234Z,14.60
2023-04-26T18:58:16.985Z,14.50
2023-04-26T19:00:44.723Z,14.50
2023-04-26T19:03:12.851Z,14.60
2023-04-26T19:05:42.509Z,14.50
2023-04-26T19:08:10.542Z,14.50
2023-04-26T19:10:38.398Z,14.60
2023-04-26T19:13:07.701Z,14.60
2023-04-26T19:15:36.376Z,14.40
2023-04-26T19:18:04.223Z,14.50
2023-04-26T19:20:32.736Z,14.70
2023-04-26T19:23:00.461Z,14.60
2023-04-26T19:25:30.336Z,14.50
2023-04-26T19:27:58.238Z,14.50
2023-04-26T19:30:27.447Z,14.50
2023-04-26T19:32:55.512Z,14.60
2023-04-26T19:35:23.263Z,14.50
2023-04-26T19:37:51.159Z,14.50
2023-04-26T19:40:18.967Z,14.40
2023-04-26T19:42:46.773Z,14.50
2023-04-26T19:45:14.698Z,14.50
2023-04-26T19:47:44.076Z,14.50
2023-04-26T19:50:12.790Z,14.40
2023-04-26T19:52:40.621Z,14.40
2023-04-26T19:55:10.401Z,14.40
2023-04-26T19:57:38.607Z,14.50
2023-04-26T20:00:10.269Z,14.50
2023-04-26T20:02:38.312Z,14.60
2023-04-26T20:05:09.290Z,14.50
2023-04-26T20:07:37.155Z,14.20
2023-04-26T20:10:05.349Z,14.30
2023-04-26T20:12:34.456Z,14.30
2023-04-26T20:15:02.490Z,14.20
2023-04-26T20:17:30.347Z,14.10
2023-04-26T20:19:58.179Z,14.10
2023-04-26T20:22:27.685Z,14.10
2023-04-26T20:24:55.386Z,14.20
2023-04-26T20:27:23.152Z,14.30
2023-04-26T20:29:50.998Z,14.40
2023-04-26T20:32:19.384Z,14.30
2023-04-26T20:34:47.595Z,14.40
2023-04-26T20:37:15.495Z,14.40
2023-04-26T20:39:44.812Z,14.20
2023-04-26T20:42:12.763Z,14.20
2023-04-26T20:44:40.545Z,14.20
2023-04-26T20:47:09.034Z,14.10
2023-04-26T20:49:36.889Z,14.10
2023-04-26T20:52:05.163Z,14.10
2023-04-26T20:54:33.362Z,13.90
2023-04-26T20:57:04.026Z,13.90
2023-04-26T20:59:33.950Z,14.00
2023-04-26T21:02:02.928Z,13.90
2023-04-26T21:04:30.948Z,13.90
2023-04-26T21:06:58.853Z,13.90
2023-04-26T21:09:26.677Z,13.90
2023-04-26T21:11:54.477Z,13.80
2023-04-26T21:14:23.578Z,13.90
2023-04-26T21:16:51.270Z,13.80
2023-04-26T21:19:19.023Z,13.70
2023-04-26T21:21:46.908Z,13.70
2023-04-26T21:24:14.736Z,13.70
2023-04-26T21:26:42.540Z,13.80
2023-04-26T21:29:10.448Z,13.80
2023-04-26T21:31:39.686Z,13.80
2023-04-26T21:34:07.461Z,13.90
2023-04-26T21:36:35.134Z,13.80
2023-04-26T21:39:03.510Z,13.90
2023-04-26T21:41:31.358Z,13.90
2023-04-26T21:43:59.073Z,13.90
2023-04-26T21:46:27.761Z,13.70
2023-04-26T21:48:56.872Z,13.60
2023-04-26T21:51:24.686Z,13.50
2023-04-26T21:53:52.419Z,13.40
2023-04-26T21:56:20.181Z,13.50
2023-04-26T21:58:47.890Z,13.40
2023-04-26T22:01:16.633Z,13.40
2023-04-26T22:03:44.598Z,13.20
2023-04-26T22:06:13.855Z,13.20
2023-04-26T22:08:41.891Z,13.30
2023-04-26T22:11:09.647Z,13.10
2023-04-26T22:13:37.394Z,13.00
2023-04-26T22:16:06.101Z,13.10
2023-04-26T22:18:35.047Z,13.10
2023-04-26T22:21:02.705Z,13.20
2023-04-26T22:23:32.022Z,13.40
2023-04-26T22:26:00.642Z,13.20
2023-04-26T22:28:28.471Z,13.40
2023-04-26T22:30:56.226Z,13.50
2023-04-26T22:33:23.925Z,13.40
2023-04-26T22:35:51.809Z,13.60
2023-04-26T22:38:19.520Z,13.60
2023-04-26T22:40:48.552Z,13.60
2023-04-26T22:43:16.883Z,13.50
2023-04-26T22:45:44.804Z,13.50
2023-04-26T22:48:12.754Z,13.40
2023-04-26T22:50:40.595Z,13.50
2023-04-26T22:53:09.144Z,13.40
2023-04-26T22:55:36.904Z,13.30
2023-04-26T22:58:06.039Z,13.30
2023-04-26T23:00:33.708Z,13.30
2023-04-26T23:03:01.493Z,13.30
2023-04-26T23:05:29.346Z,13.30
2023-04-26T23:07:57.104Z,13.30
2023-04-26T23:10:25.057Z,13.30
2023-04-26T23:12:52.963Z,13.40
2023-04-26T23:15:22.495Z,13.30
2023-04-26T23:17:50.468Z,13.40
2023-04-26T23:20:18.465Z,13.30
2023-04-26T23:22:46.256Z,13.10
2023-04-26T23:25:14.074Z,13.20
2023-04-26T23:27:42.010Z,13.00
2023-04-26T23:30:10.768Z,13.00
2023-04-26T23:32:39.976Z,13.10
2023-04-26T23:35:08.735Z,12.90
2023-04-26T23:37:36.477Z,12.80
2023-04-26T23:40:06.035Z,12.90
2023-04-26T23:42:33.775Z,13.00
2023-04-26T23:45:01.768Z,12.90
2023-04-26T23:47:30.081Z,12.90
2023-04-26T23:49:59.446Z,12.80
2023-04-26T23:52:27.576Z,12.60
2023-04-26T23:54:55.271Z,12.80
2023-04-26T23:57:23.031Z,12.70
2023-04-26T23:59:52.577Z,12.60
